sensor_id;sensor_type;location;lat;lon;timestamp;pressure;altitude;pressure_sealevel;temperature;humidity
13661;BME280;6903;49.480;11.102;2023-01-19T00:00:05;96730.25;;;-1.78;100.00
13661;BME280;6903;49.480;11.102;2023-01-19T00:02:32;96736.91;;;-1.74;100.00
13661;BME280;6903;49.480;11.102;2023-01-19T00:04:58;96722.19;;;-1.72;100.00
13661;BME280;6903;49.480;11.102;2023-01-19T00:07:23;96726.22;;;-1.66;100.00
13661;BME280;6903;49.480;11.102;2023-01-19T00:09:49;96721.03;;;-1.66;100.00
13661;BME280;6903;49.480;11.102;2023-01-19T00:12:14;96721.13;;;-1.68;100.00
13661;BME280;6903;49.480;11.102;2023-01-19T00:14:39;96724.53;;;-1.67;100.00
13661;BME280;6903;49.480;11.102;2023-01-19T00:17:05;96723.03;;;-1.71;100.00
13661;BME280;6903;49.480;11.102;2023-01-19T00:19:30;96723.09;;;-1.73;100.00
13661;BME280;6903;49.480;11.102;2023-01-19T00:21:55;96726.44;;;-1.88;100.00
13661;BME280;6903;49.480;11.102;2023-01-19T00:24:21;96724.34;;;-1.97;100.00
13661;BME280;6903;49.480;11.102;2023-01-19T00:26:46;96722.97;;;-2.04;100.00
13661;BME280;6903;49.480;11.102;2023-01-19T00:32:33;96719.00;;;-2.11;100.00
13661;BME280;6903;49.480;11.102;2023-01-19T00:34:59;96719.84;;;-2.10;100.00
13661;BME280;6903;49.480;11.102;2023-01-19T00:37:24;96722.81;;;-2.18;100.00
13661;BME280;6903;49.480;11.102;2023-01-19T00:39:49;96725.66;;;-2.24;100.00
13661;BME280;6903;49.480;11.102;2023-01-19T00:42:14;96723.16;;;-2.25;100.00
13661;BME280;6903;49.480;11.102;2023-01-19T00:44:58;96727.66;;;-2.29;100.00
13661;BME280;6903;49.480;11.102;2023-01-19T00:47:24;96730.78;;;-2.22;100.00
13661;BME280;6903;49.480;11.102;2023-01-19T00:49:49;96736.69;;;-2.20;100.00
13661;BME280;6903;49.480;11.102;2023-01-19T00:52:15;96737.31;;;-2.15;100.00
13661;BME280;6903;49.480;11.102;2023-01-19T00:54:40;96737.31;;;-2.15;100.00
13661;BME280;6903;49.480;11.102;2023-01-19T00:57:05;96737.38;;;-2.17;100.00
13661;BME280;6903;49.480;11.102;2023-01-19T00:59:30;96734.19;;;-2.22;100.00
13661;BME280;6903;49.480;11.102;2023-01-19T01:01:56;96737.84;;;-2.26;100.00
13661;BME280;6903;49.480;11.102;2023-01-19T01:04:21;96739.66;;;-2.28;100.00
13661;BME280;6903;49.480;11.102;2023-01-19T01:06:46;96738.88;;;-2.30;100.00
13661;BME280;6903;49.480;11.102;2023-01-19T01:09:12;96743.34;;;-2.33;100.00
13661;BME280;6903;49.480;11.102;2023-01-19T01:11:41;96753.75;;;-2.35;100.00
13661;BME280;6903;49.480;11.102;2023-01-19T01:14:07;96752.94;;;-2.35;100.00
13661;BME280;6903;49.480;11.102;2023-01-19T01:16:33;96758.91;;;-2.35;100.00
13661;BME280;6903;49.480;11.102;2023-01-19T01:18:58;96761.50;;;-2.35;100.00
13661;BME280;6903;49.480;11.102;2023-01-19T01:21:24;96769.16;;;-2.33;100.00
13661;BME280;6903;49.480;11.102;2023-01-19T01:23:49;96777.38;;;-2.25;100.00
13661;BME280;6903;49.480;11.102;2023-01-19T01:26:14;96783.38;;;-2.25;100.00
13661;BME280;6903;49.480;11.102;2023-01-19T01:28:40;96781.66;;;-2.24;100.00
13661;BME280;6903;49.480;11.102;2023-01-19T01:31:05;96797.81;;;-2.21;100.00
13661;BME280;6903;49.480;11.102;2023-01-19T01:33:30;96793.25;;;-2.16;100.00
13661;BME280;6903;49.480;11.102;2023-01-19T01:35:56;96786.34;;;-2.15;100.00
13661;BME280;6903;49.480;11.102;2023-01-19T01:38:21;96789.16;;;-2.20;100.00
13661;BME280;6903;49.480;11.102;2023-01-19T01:40:46;96787.50;;;-2.21;100.00
13661;BME280;6903;49.480;11.102;2023-01-19T01:43:13;96792.38;;;-2.15;100.00
13661;BME280;6903;49.480;11.102;2023-01-19T01:45:40;96793.22;;;-2.14;100.00
13661;BME280;6903;49.480;11.102;2023-01-19T01:48:24;96796.69;;;-2.15;100.00
13661;BME280;6903;49.480;11.102;2023-01-19T01:51:04;96807.69;;;-2.12;100.00
13661;BME280;6903;49.480;11.102;2023-01-19T01:53:52;96798.28;;;-2.13;100.00
13661;BME280;6903;49.480;11.102;2023-01-19T01:56:23;96803.53;;;-2.14;100.00
13661;BME280;6903;49.480;11.102;2023-01-19T01:58:52;96797.69;;;-2.18;100.00
13661;BME280;6903;49.480;11.102;2023-01-19T02:01:17;96791.81;;;-2.21;100.00
13661;BME280;6903;49.480;11.102;2023-01-19T02:04:01;96797.06;;;-2.23;100.00
13661;BME280;6903;49.480;11.102;2023-01-19T02:06:27;96789.25;;;-2.21;100.00
13661;BME280;6903;49.480;11.102;2023-01-19T02:09:06;96798.56;;;-2.19;100.00
13661;BME280;6903;49.480;11.102;2023-01-19T02:11:53;96789.47;;;-2.26;100.00
13661;BME280;6903;49.480;11.102;2023-01-19T02:14:37;96791.50;;;-2.32;100.00
13661;BME280;6903;49.480;11.102;2023-01-19T02:17:03;96789.06;;;-2.35;100.00
13661;BME280;6903;49.480;11.102;2023-01-19T02:19:34;96785.63;;;-2.36;100.00
13661;BME280;6903;49.480;11.102;2023-01-19T02:22:08;96779.00;;;-2.41;100.00
13661;BME280;6903;49.480;11.102;2023-01-19T02:24:35;96784.38;;;-2.46;100.00
13661;BME280;6903;49.480;11.102;2023-01-19T02:27:02;96795.63;;;-2.47;100.00
13661;BME280;6903;49.480;11.102;2023-01-19T02:29:28;96793.28;;;-2.51;100.00
13661;BME280;6903;49.480;11.102;2023-01-19T02:31:54;96789.22;;;-2.57;100.00
13661;BME280;6903;49.480;11.102;2023-01-19T02:34:21;96794.66;;;-2.63;100.00
13661;BME280;6903;49.480;11.102;2023-01-19T02:37:07;96786.94;;;-2.63;100.00
13661;BME280;6903;49.480;11.102;2023-01-19T02:39:40;96784.28;;;-2.61;100.00
13661;BME280;6903;49.480;11.102;2023-01-19T02:42:11;96790.25;;;-2.61;100.00
13661;BME280;6903;49.480;11.102;2023-01-19T02:44:38;96791.16;;;-2.62;100.00
13661;BME280;6903;49.480;11.102;2023-01-19T02:47:04;96797.41;;;-2.66;100.00
13661;BME280;6903;49.480;11.102;2023-01-19T02:49:30;96799.41;;;-2.72;100.00
13661;BME280;6903;49.480;11.102;2023-01-19T02:51:56;96808.13;;;-2.75;100.00
13661;BME280;6903;49.480;11.102;2023-01-19T02:54:32;96801.00;;;-2.70;100.00
13661;BME280;6903;49.480;11.102;2023-01-19T03:03:29;96815.78;;;-2.73;100.00
13661;BME280;6903;49.480;11.102;2023-01-19T03:06:06;96816.00;;;-2.78;100.00
13661;BME280;6903;49.480;11.102;2023-01-19T03:08:52;96817.94;;;-2.83;100.00
13661;BME280;6903;49.480;11.102;2023-01-19T03:11:19;96821.50;;;-2.85;100.00
13661;BME280;6903;49.480;11.102;2023-01-19T03:13:51;96823.38;;;-2.89;100.00
13661;BME280;6903;49.480;11.102;2023-01-19T03:19:26;96826.88;;;-2.90;100.00
13661;BME280;6903;49.480;11.102;2023-01-19T03:21:57;96826.03;;;-2.91;100.00
13661;BME280;6903;49.480;11.102;2023-01-19T03:24:25;96829.94;;;-2.82;100.00
13661;BME280;6903;49.480;11.102;2023-01-19T03:26:57;96829.81;;;-2.79;100.00
13661;BME280;6903;49.480;11.102;2023-01-19T03:29:31;96828.19;;;-2.81;100.00
13661;BME280;6903;49.480;11.102;2023-01-19T03:32:01;96829.03;;;-2.81;100.00
13661;BME280;6903;49.480;11.102;2023-01-19T03:34:28;96834.41;;;-2.85;100.00
13661;BME280;6903;49.480;11.102;2023-01-19T03:36:57;96833.56;;;-2.86;100.00
13661;BME280;6903;49.480;11.102;2023-01-19T03:39:25;96835.22;;;-2.85;100.00
13661;BME280;6903;49.480;11.102;2023-01-19T03:41:56;96839.56;;;-2.85;100.00
13661;BME280;6903;49.480;11.102;2023-01-19T03:44:24;96841.16;;;-2.83;100.00
13661;BME280;6903;49.480;11.102;2023-01-19T03:46:51;96846.09;;;-2.78;100.00
13661;BME280;6903;49.480;11.102;2023-01-19T03:49:16;96851.06;;;-2.74;100.00
13661;BME280;6903;49.480;11.102;2023-01-19T03:51:42;96850.31;;;-2.76;100.00
13661;BME280;6903;49.480;11.102;2023-01-19T03:54:09;96860.63;;;-2.76;100.00
13661;BME280;6903;49.480;11.102;2023-01-19T03:56:35;96857.13;;;-2.75;100.00
13661;BME280;6903;49.480;11.102;2023-01-19T03:59:00;96857.97;;;-2.74;100.00
13661;BME280;6903;49.480;11.102;2023-01-19T04:01:25;96859.56;;;-2.72;100.00
13661;BME280;6903;49.480;11.102;2023-01-19T04:03:51;96860.34;;;-2.70;100.00
13661;BME280;6903;49.480;11.102;2023-01-19T04:06:17;96862.97;;;-2.71;100.00
13661;BME280;6903;49.480;11.102;2023-01-19T04:08:43;96860.97;;;-2.65;100.00
13661;BME280;6903;49.480;11.102;2023-01-19T04:11:08;96865.22;;;-2.64;100.00
13661;BME280;6903;49.480;11.102;2023-01-19T04:13:34;96865.97;;;-2.62;100.00
13661;BME280;6903;49.480;11.102;2023-01-19T04:16:00;96872.94;;;-2.64;100.00
13661;BME280;6903;49.480;11.102;2023-01-19T04:18:30;96872.31;;;-2.69;100.00
13661;BME280;6903;49.480;11.102;2023-01-19T04:20:59;96860.63;;;-2.76;100.00
13661;BME280;6903;49.480;11.102;2023-01-19T04:23:25;96867.78;;;-2.82;100.00
13661;BME280;6903;49.480;11.102;2023-01-19T04:25:59;96864.16;;;-2.78;100.00
13661;BME280;6903;49.480;11.102;2023-01-19T04:28:25;96861.72;;;-2.81;100.00
13661;BME280;6903;49.480;11.102;2023-01-19T04:30:50;96859.97;;;-2.81;100.00
13661;BME280;6903;49.480;11.102;2023-01-19T04:33:17;96861.78;;;-2.83;100.00
13661;BME280;6903;49.480;11.102;2023-01-19T04:35:43;96864.22;;;-2.80;100.00
13661;BME280;6903;49.480;11.102;2023-01-19T04:38:09;96854.53;;;-2.75;100.00
13661;BME280;6903;49.480;11.102;2023-01-19T04:40:34;96857.53;;;-2.65;100.00
13661;BME280;6903;49.480;11.102;2023-01-19T04:43:00;96855.88;;;-2.66;100.00
13661;BME280;6903;49.480;11.102;2023-01-19T04:45:25;96846.53;;;-2.69;100.00
13661;BME280;6903;49.480;11.102;2023-01-19T04:47:50;96850.16;;;-2.73;100.00
13661;BME280;6903;49.480;11.102;2023-01-19T04:50:16;96858.81;;;-2.74;100.00
13661;BME280;6903;49.480;11.102;2023-01-19T04:52:41;96856.09;;;-2.71;100.00
13661;BME280;6903;49.480;11.102;2023-01-19T04:55:07;96853.38;;;-2.68;100.00
13661;BME280;6903;49.480;11.102;2023-01-19T04:57:32;96855.03;;;-2.67;100.00
13661;BME280;6903;49.480;11.102;2023-01-19T04:59:58;96858.66;;;-2.71;100.00
13661;BME280;6903;49.480;11.102;2023-01-19T05:02:24;96863.97;;;-2.74;100.00
13661;BME280;6903;49.480;11.102;2023-01-19T05:04:49;96860.63;;;-2.76;100.00
13661;BME280;6903;49.480;11.102;2023-01-19T05:07:15;96866.66;;;-2.77;100.00
13661;BME280;6903;49.480;11.102;2023-01-19T05:09:40;96861.63;;;-2.80;100.00
13661;BME280;6903;49.480;11.102;2023-01-19T05:12:05;96870.16;;;-2.78;100.00
13661;BME280;6903;49.480;11.102;2023-01-19T05:14:31;96875.31;;;-2.78;100.00
13661;BME280;6903;49.480;11.102;2023-01-19T05:16:56;96874.78;;;-2.66;100.00
13661;BME280;6903;49.480;11.102;2023-01-19T05:19:21;96875.91;;;-2.53;100.00
13661;BME280;6903;49.480;11.102;2023-01-19T05:21:47;96871.28;;;-2.46;100.00
13661;BME280;6903;49.480;11.102;2023-01-19T05:24:13;96871.09;;;-2.42;100.00
13661;BME280;6903;49.480;11.102;2023-01-19T05:26:38;96873.53;;;-2.39;100.00
13661;BME280;6903;49.480;11.102;2023-01-19T05:29:03;96876.13;;;-2.39;100.00
13661;BME280;6903;49.480;11.102;2023-01-19T05:31:29;96876.94;;;-2.38;100.00
13661;BME280;6903;49.480;11.102;2023-01-19T05:33:54;96881.19;;;-2.56;100.00
13661;BME280;6903;49.480;11.102;2023-01-19T05:36:19;96882.09;;;-2.57;100.00
13661;BME280;6903;49.480;11.102;2023-01-19T05:38:45;96880.22;;;-2.53;100.00
13661;BME280;6903;49.480;11.102;2023-01-19T05:41:10;96880.78;;;-2.47;100.00
13661;BME280;6903;49.480;11.102;2023-01-19T05:43:35;96881.41;;;-2.42;100.00
13661;BME280;6903;49.480;11.102;2023-01-19T05:46:02;96890.59;;;-2.36;100.00
13661;BME280;6903;49.480;11.102;2023-01-19T05:48:28;96888.09;;;-2.38;100.00
13661;BME280;6903;49.480;11.102;2023-01-19T05:51:00;96894.66;;;-2.31;100.00
13661;BME280;6903;49.480;11.102;2023-01-19T05:53:26;96895.16;;;-2.23;100.00
13661;BME280;6903;49.480;11.102;2023-01-19T05:55:51;96892.06;;;-2.12;100.00
13661;BME280;6903;49.480;11.102;2023-01-19T05:58:17;96897.56;;;-2.01;100.00
13661;BME280;6903;49.480;11.102;2023-01-19T06:00:42;96894.91;;;-2.00;100.00
13661;BME280;6903;49.480;11.102;2023-01-19T06:03:07;96899.25;;;-2.00;100.00
13661;BME280;6903;49.480;11.102;2023-01-19T06:05:33;96887.53;;;-2.07;100.00
13661;BME280;6903;49.480;11.102;2023-01-19T06:08:00;96882.03;;;-2.18;100.00
13661;BME280;6903;49.480;11.102;2023-01-19T06:10:25;96889.34;;;-2.28;100.00
13661;BME280;6903;49.480;11.102;2023-01-19T06:12:51;96887.06;;;-2.34;100.00
13661;BME280;6903;49.480;11.102;2023-01-19T06:15:16;96881.13;;;-2.36;100.00
13661;BME280;6903;49.480;11.102;2023-01-19T06:17:42;96892.31;;;-2.35;100.00
13661;BME280;6903;49.480;11.102;2023-01-19T06:20:08;96885.50;;;-2.38;100.00
13661;BME280;6903;49.480;11.102;2023-01-19T06:22:33;96888.25;;;-2.41;100.00
13661;BME280;6903;49.480;11.102;2023-01-19T06:24:59;96895.22;;;-2.43;100.00
13661;BME280;6903;49.480;11.102;2023-01-19T06:27:24;96898.84;;;-2.47;100.00
13661;BME280;6903;49.480;11.102;2023-01-19T06:29:49;96897.22;;;-2.49;100.00
13661;BME280;6903;49.480;11.102;2023-01-19T06:32:15;96899.25;;;-2.56;100.00
13661;BME280;6903;49.480;11.102;2023-01-19T06:34:40;96909.44;;;-2.53;100.00
13661;BME280;6903;49.480;11.102;2023-01-19T06:37:10;96911.13;;;-2.52;100.00
13661;BME280;6903;49.480;11.102;2023-01-19T06:39:36;96908.53;;;-2.52;100.00
13661;BME280;6903;49.480;11.102;2023-01-19T06:42:02;96920.25;;;-2.45;100.00
13661;BME280;6903;49.480;11.102;2023-01-19T06:44:27;96922.13;;;-2.48;100.00
13661;BME280;6903;49.480;11.102;2023-01-19T06:46:53;96910.97;;;-2.49;100.00
13661;BME280;6903;49.480;11.102;2023-01-19T06:49:18;96912.03;;;-2.53;100.00
13661;BME280;6903;49.480;11.102;2023-01-19T06:51:44;96911.25;;;-2.55;100.00
13661;BME280;6903;49.480;11.102;2023-01-19T06:54:09;96914.59;;;-2.53;100.00
13661;BME280;6903;49.480;11.102;2023-01-19T06:56:34;96920.44;;;-2.49;100.00
13661;BME280;6903;49.480;11.102;2023-01-19T06:58:59;96915.34;;;-2.51;100.00
13661;BME280;6903;49.480;11.102;2023-01-19T07:01:25;96911.13;;;-2.52;100.00
13661;BME280;6903;49.480;11.102;2023-01-19T07:03:51;96910.34;;;-2.54;100.00
13661;BME280;6903;49.480;11.102;2023-01-19T07:06:16;96918.34;;;-2.60;100.00
13661;BME280;6903;49.480;11.102;2023-01-19T07:08:41;96929.56;;;-2.61;100.00
13661;BME280;6903;49.480;11.102;2023-01-19T07:11:09;96921.81;;;-2.61;100.00
13661;BME280;6903;49.480;11.102;2023-01-19T07:13:37;96928.09;;;-2.66;100.00
13661;BME280;6903;49.480;11.102;2023-01-19T07:16:08;96931.41;;;-2.63;100.00
13661;BME280;6903;49.480;11.102;2023-01-19T07:18:35;96929.91;;;-2.68;100.00
13661;BME280;6903;49.480;11.102;2023-01-19T07:21:01;96934.94;;;-2.65;100.00
13661;BME280;6903;49.480;11.102;2023-01-19T07:23:26;96938.50;;;-2.68;100.00
13661;BME280;6903;49.480;11.102;2023-01-19T07:25:55;96939.38;;;-2.69;100.00
13661;BME280;6903;49.480;11.102;2023-01-19T07:28:20;96932.56;;;-2.70;100.00
13661;BME280;6903;49.480;11.102;2023-01-19T07:30:50;96934.22;;;-2.69;100.00
13661;BME280;6903;49.480;11.102;2023-01-19T07:33:15;96937.56;;;-2.67;100.00
13661;BME280;6903;49.480;11.102;2023-01-19T07:35:45;96939.28;;;-2.66;100.00
13661;BME280;6903;49.480;11.102;2023-01-19T07:38:10;96936.63;;;-2.64;100.00
13661;BME280;6903;49.480;11.102;2023-01-19T07:40:36;96935.56;;;-2.60;100.00
13661;BME280;6903;49.480;11.102;2023-01-19T07:43:01;96950.84;;;-2.56;100.00
13661;BME280;6903;49.480;11.102;2023-01-19T07:45:26;96946.31;;;-2.51;100.00
13661;BME280;6903;49.480;11.102;2023-01-19T07:47:52;96946.25;;;-2.49;100.00
13661;BME280;6903;49.480;11.102;2023-01-19T07:50:17;96944.50;;;-2.49;100.00
13661;BME280;6903;49.480;11.102;2023-01-19T07:52:45;96945.09;;;-2.42;100.00
13661;BME280;6903;49.480;11.102;2023-01-19T07:55:11;96954.81;;;-2.29;100.00
13661;BME280;6903;49.480;11.102;2023-01-19T07:57:36;96956.31;;;-2.25;100.00
13661;BME280;6903;49.480;11.102;2023-01-19T08:00:02;96960.47;;;-2.21;100.00
13661;BME280;6903;49.480;11.102;2023-01-19T08:02:29;96964.63;;;-2.18;100.00
13661;BME280;6903;49.480;11.102;2023-01-19T08:04:55;96957.81;;;-2.19;100.00
13661;BME280;6903;49.480;11.102;2023-01-19T08:07:21;96964.50;;;-2.15;100.00
13661;BME280;6903;49.480;11.102;2023-01-19T08:09:46;96973.00;;;-2.13;100.00
13661;BME280;6903;49.480;11.102;2023-01-19T08:12:11;96977.03;;;-2.08;100.00
13661;BME280;6903;49.480;11.102;2023-01-19T08:14:37;96984.31;;;-1.97;100.00
13661;BME280;6903;49.480;11.102;2023-01-19T08:17:02;96975.19;;;-1.86;100.00
13661;BME280;6903;49.480;11.102;2023-01-19T08:19:28;96981.31;;;-1.70;100.00
13661;BME280;6903;49.480;11.102;2023-01-19T08:21:53;96988.13;;;-1.50;100.00
13661;BME280;6903;49.480;11.102;2023-01-19T08:24:21;96987.38;;;-1.35;100.00
13661;BME280;6903;49.480;11.102;2023-01-19T08:26:48;96989.09;;;-1.17;100.00
13661;BME280;6903;49.480;11.102;2023-01-19T08:29:14;96988.25;;;-1.00;100.00
13661;BME280;6903;49.480;11.102;2023-01-19T08:31:39;96995.31;;;-0.87;100.00
13661;BME280;6903;49.480;11.102;2023-01-19T08:34:05;96993.97;;;-0.77;100.00
13661;BME280;6903;49.480;11.102;2023-01-19T08:36:31;96992.44;;;-0.64;100.00
13661;BME280;6903;49.480;11.102;2023-01-19T08:38:56;96995.38;;;-0.54;100.00
13661;BME280;6903;49.480;11.102;2023-01-19T08:41:21;96995.50;;;-0.40;100.00
13661;BME280;6903;49.480;11.102;2023-01-19T08:43:47;96998.16;;;-0.25;100.00
13661;BME280;6903;49.480;11.102;2023-01-19T08:46:13;97007.63;;;-0.08;100.00
13661;BME280;6903;49.480;11.102;2023-01-19T08:48:45;97004.56;;;0.01;100.00
13661;BME280;6903;49.480;11.102;2023-01-19T08:51:12;97015.97;;;0.14;100.00
13661;BME280;6903;49.480;11.102;2023-01-19T08:53:39;97007.34;;;0.29;100.00
13661;BME280;6903;49.480;11.102;2023-01-19T08:56:05;97012.22;;;0.51;100.00
13661;BME280;6903;49.480;11.102;2023-01-19T08:58:36;97017.81;;;0.59;100.00
13661;BME280;6903;49.480;11.102;2023-01-19T09:01:01;97024.44;;;0.64;100.00
13661;BME280;6903;49.480;11.102;2023-01-19T09:03:26;97029.19;;;0.72;100.00
13661;BME280;6903;49.480;11.102;2023-01-19T09:05:52;97028.66;;;0.81;100.00
13661;BME280;6903;49.480;11.102;2023-01-19T09:08:17;97035.78;;;0.93;100.00
13661;BME280;6903;49.480;11.102;2023-01-19T09:10:48;97033.50;;;1.02;100.00
13661;BME280;6903;49.480;11.102;2023-01-19T09:13:14;97028.81;;;1.09;100.00
13661;BME280;6903;49.480;11.102;2023-01-19T09:15:40;97032.19;;;1.25;100.00
13661;BME280;6903;49.480;11.102;2023-01-19T09:18:08;97034.47;;;1.45;100.00
13661;BME280;6903;49.480;11.102;2023-01-19T09:20:34;97032.25;;;1.53;100.00
13661;BME280;6903;49.480;11.102;2023-01-19T09:23:02;97043.78;;;1.63;100.00
13661;BME280;6903;49.480;11.102;2023-01-19T09:25:28;97039.25;;;1.67;100.00
13661;BME280;6903;49.480;11.102;2023-01-19T09:27:53;97036.78;;;1.79;100.00
13661;BME280;6903;49.480;11.102;2023-01-19T09:30:20;97030.94;;;1.90;100.00
13661;BME280;6903;49.480;11.102;2023-01-19T09:32:45;97037.63;;;1.94;100.00
13661;BME280;6903;49.480;11.102;2023-01-19T09:35:11;97038.94;;;2.01;100.00
13661;BME280;6903;49.480;11.102;2023-01-19T09:37:36;97038.19;;;1.99;100.00
13661;BME280;6903;49.480;11.102;2023-01-19T09:40:03;97037.56;;;2.09;100.00
13661;BME280;6903;49.480;11.102;2023-01-19T09:42:41;97046.72;;;2.15;100.00
13661;BME280;6903;49.480;11.102;2023-01-19T09:45:33;97050.84;;;2.19;100.00
13661;BME280;6903;49.480;11.102;2023-01-19T09:48:00;97047.19;;;2.21;100.00
13661;BME280;6903;49.480;11.102;2023-01-19T09:50:30;97054.53;;;2.15;100.00
13661;BME280;6903;49.480;11.102;2023-01-19T09:53:03;97042.56;;;2.12;100.00
13661;BME280;6903;49.480;11.102;2023-01-19T09:55:31;97045.44;;;2.08;100.00
13661;BME280;6903;49.480;11.102;2023-01-19T09:57:57;97033.34;;;2.07;100.00
13661;BME280;6903;49.480;11.102;2023-01-19T10:00:24;97034.13;;;1.95;100.00
13661;BME280;6903;49.480;11.102;2023-01-19T10:02:59;97032.69;;;2.03;100.00
13661;BME280;6903;49.480;11.102;2023-01-19T10:05:48;97032.88;;;2.14;100.00
13661;BME280;6903;49.480;11.102;2023-01-19T10:08:46;97025.44;;;2.22;100.00
13661;BME280;6903;49.480;11.102;2023-01-19T10:11:34;97031.69;;;2.34;100.00
13661;BME280;6903;49.480;11.102;2023-01-19T10:14:02;97023.63;;;2.38;100.00
13661;BME280;6903;49.480;11.102;2023-01-19T10:16:50;97021.53;;;2.43;100.00
13661;BME280;6903;49.480;11.102;2023-01-19T10:19:27;97027.00;;;2.53;100.00
13661;BME280;6903;49.480;11.102;2023-01-19T10:21:56;97024.78;;;2.61;100.00
13661;BME280;6903;49.480;11.102;2023-01-19T10:24:31;97023.91;;;2.74;100.00
13661;BME280;6903;49.480;11.102;2023-01-19T10:27:00;97031.31;;;2.80;100.00
13661;BME280;6903;49.480;11.102;2023-01-19T10:29:36;97029.34;;;2.84;100.00
13661;BME280;6903;49.480;11.102;2023-01-19T10:32:19;97026.66;;;2.85;100.00
13661;BME280;6903;49.480;11.102;2023-01-19T10:34:46;97030.09;;;2.86;100.00
13661;BME280;6903;49.480;11.102;2023-01-19T10:39:55;97030.75;;;2.89;100.00
13661;BME280;6903;49.480;11.102;2023-01-19T10:42:21;97029.69;;;2.92;100.00
13661;BME280;6903;49.480;11.102;2023-01-19T10:44:48;97023.41;;;3.09;100.00
13661;BME280;6903;49.480;11.102;2023-01-19T10:47:19;97031.28;;;3.21;100.00
13661;BME280;6903;49.480;11.102;2023-01-19T10:49:46;97026.94;;;3.34;100.00
13661;BME280;6903;49.480;11.102;2023-01-19T10:54:56;97025.81;;;3.38;100.00
13661;BME280;6903;49.480;11.102;2023-01-19T10:57:28;97030.50;;;3.46;100.00
13661;BME280;6903;49.480;11.102;2023-01-19T10:59:54;97026.31;;;3.43;100.00
13661;BME280;6903;49.480;11.102;2023-01-19T11:04:51;97022.06;;;3.42;100.00
13661;BME280;6903;49.480;11.102;2023-01-19T11:09:48;97024.25;;;3.48;100.00
13661;BME280;6903;49.480;11.102;2023-01-19T11:12:19;97023.13;;;3.52;100.00
13661;BME280;6903;49.480;11.102;2023-01-19T11:14:45;97023.78;;;3.29;100.00
13661;BME280;6903;49.480;11.102;2023-01-19T11:17:23;97025.47;;;3.30;100.00
13661;BME280;6903;49.480;11.102;2023-01-19T11:19:58;97024.13;;;3.37;100.00
13661;BME280;6903;49.480;11.102;2023-01-19T11:22:29;97021.94;;;3.44;100.00
13661;BME280;6903;49.480;11.102;2023-01-19T11:25:00;97024.16;;;3.50;100.00
13661;BME280;6903;49.480;11.102;2023-01-19T11:27:26;97024.25;;;3.48;100.00
13661;BME280;6903;49.480;11.102;2023-01-19T11:30:19;97017.81;;;3.54;100.00
13661;BME280;6903;49.480;11.102;2023-01-19T11:32:46;97011.34;;;3.59;100.00
13661;BME280;6903;49.480;11.102;2023-01-19T11:35:33;97001.88;;;3.58;100.00
13661;BME280;6903;49.480;11.102;2023-01-19T11:40:37;97001.16;;;3.81;100.00
13661;BME280;6903;49.480;11.102;2023-01-19T11:43:03;97007.00;;;3.97;100.00
13661;BME280;6903;49.480;11.102;2023-01-19T11:45:30;97006.03;;;4.11;100.00
13661;BME280;6903;49.480;11.102;2023-01-19T11:47:58;97004.47;;;4.21;100.00
13661;BME280;6903;49.480;11.102;2023-01-19T11:50:30;96991.94;;;4.26;100.00
13661;BME280;6903;49.480;11.102;2023-01-19T11:53:05;96996.31;;;4.38;100.00
13661;BME280;6903;49.480;11.102;2023-01-19T11:55:52;96999.31;;;4.45;100.00
13661;BME280;6903;49.480;11.102;2023-01-19T11:58:18;96994.59;;;4.62;100.00
13661;BME280;6903;49.480;11.102;2023-01-19T12:00:54;96989.97;;;4.66;100.00
13661;BME280;6903;49.480;11.102;2023-01-19T12:03:45;96993.19;;;4.69;100.00
13661;BME280;6903;49.480;11.102;2023-01-19T12:06:21;96987.03;;;4.70;100.00
13661;BME280;6903;49.480;11.102;2023-01-19T12:08:55;96984.84;;;4.77;100.00
13661;BME280;6903;49.480;11.102;2023-01-19T12:11:28;96992.44;;;4.80;100.00
13661;BME280;6903;49.480;11.102;2023-01-19T12:13:55;96994.66;;;4.73;100.00
13661;BME280;6903;49.480;11.102;2023-01-19T12:16:23;96991.38;;;4.82;100.00
13661;BME280;6903;49.480;11.102;2023-01-19T12:19:20;96993.34;;;4.91;100.00
13661;BME280;6903;49.480;11.102;2023-01-19T12:21:47;96985.66;;;5.01;100.00
13661;BME280;6903;49.480;11.102;2023-01-19T12:24:23;96991.44;;;4.93;100.00
13661;BME280;6903;49.480;11.102;2023-01-19T12:27:00;96989.50;;;4.84;100.00
13661;BME280;6903;49.480;11.102;2023-01-19T12:29:31;96988.88;;;4.81;100.00
13661;BME280;6903;49.480;11.102;2023-01-19T12:34:49;96987.09;;;4.81;100.00
13661;BME280;6903;49.480;11.102;2023-01-19T12:37:37;96989.66;;;4.58;100.00
13661;BME280;6903;49.480;11.102;2023-01-19T12:40:16;96991.28;;;4.35;100.00
13661;BME280;6903;49.480;11.102;2023-01-19T12:42:50;96983.72;;;4.19;100.00
13661;BME280;6903;49.480;11.102;2023-01-19T12:45:23;96980.06;;;3.97;100.00
13661;BME280;6903;49.480;11.102;2023-01-19T12:47:51;96987.19;;;3.82;100.00
13661;BME280;6903;49.480;11.102;2023-01-19T12:50:18;96991.00;;;3.64;100.00
13661;BME280;6903;49.480;11.102;2023-01-19T12:55:42;96997.06;;;3.65;100.00
13661;BME280;6903;49.480;11.102;2023-01-19T12:58:16;96994.25;;;3.68;100.00
13661;BME280;6903;49.480;11.102;2023-01-19T13:00:47;96986.44;;;3.68;100.00
13661;BME280;6903;49.480;11.102;2023-01-19T13:15:52;96979.50;;;4.66;100.00
13661;BME280;6903;49.480;11.102;2023-01-19T13:18:32;96984.63;;;4.67;100.00
13661;BME280;6903;49.480;11.102;2023-01-19T13:21:07;96979.41;;;4.67;100.00
13661;BME280;6903;49.480;11.102;2023-01-19T13:26:15;96982.50;;;4.49;100.00
13661;BME280;6903;49.480;11.102;2023-01-19T13:28:43;96984.81;;;4.41;100.00
13661;BME280;6903;49.480;11.102;2023-01-19T13:31:10;96986.84;;;4.24;100.00
13661;BME280;6903;49.480;11.102;2023-01-19T13:33:42;96990.09;;;4.15;100.00
13661;BME280;6903;49.480;11.102;2023-01-19T13:38:54;96986.44;;;4.18;100.00
13661;BME280;6903;49.480;11.102;2023-01-19T13:41:23;96986.66;;;4.02;100.00
13661;BME280;6903;49.480;11.102;2023-01-19T13:43:55;96984.97;;;4.01;100.00
13661;BME280;6903;49.480;11.102;2023-01-19T13:46:23;96988.97;;;3.94;100.00
13661;BME280;6903;49.480;11.102;2023-01-19T13:48:56;96984.13;;;3.88;100.00